Detall de PIREP

Printer-friendly versionPDF version

[2014/07/13 05:29:00]
Flight IATA:CT2110
Pilot Number:041
Company ICAO:CAT
Aircraft Type:BE20/A
PAX:3
Departing Airport: LEVC
Destination Airport: LEST
Alternate Airport:LECO
Online: VATSIM
Route:CENTA A33 PRADO A33 CJN A33 HORTA A33 MAGIN A33 INDEG A33 DISKO A33 ZMR A33 BARKO A33 FORNO
Flight Level:FL130
No Slew and time accel
No pause
Crash detect
Detect pilot in Cockpit between each 30 and 45 minutes
05:29 Zero fuel Weight: 8737 Lbs, Fuel Weight: 3677 Lbs
05:29 VATSIM:LEVC 130500Z 00000KT CAVOK 20/18 Q1017 NOSIG
05:29 VATSIM:LEST 130500Z 05004KT 020V100 9000 BKN009 14/12 Q1020 NOSIG
05:29 VOICE CATALONIAN
05:35 Parking Brakes off
05:41 Take-off
05:41 Take off Weight: 12375 Lbs
05:41 Wind: 355º @ 000 Knots Heading: 295º
05:41 POS N39º 29´ 32´´ W000º 29´ 23´´
05:41 Gear Up: 156 Knots
05:53 TOC
05:53 Fuel Weight: 3473 Lb
05:56 Wind:297º@014 Knots Heading: 299º Ground Speed: 222 Knots Altitude 13067 ft
06:11 Wind:136º@012 Knots Heading: 298º Ground Speed: 247 Knots Altitude 13166 ft
06:26 Wind:155º@012 Knots Heading: 295º Ground Speed: 246 Knots Altitude 13169 ft
06:41 Wind:150º@012 Knots Heading: 295º Ground Speed: 247 Knots Altitude 13182 ft
06:56 Wind:115º@012 Knots Heading: 304º Ground Speed: 248 Knots Altitude 13202 ft
07:11 Wind:113º@011 Knots Heading: 304º Ground Speed: 255 Knots Altitude 13031 ft
07:11 TOD
07:11 Fuel Weight: 2628 Lb
07:26 Wind:135º@003 Knots Heading: 311º Ground Speed: 215 Knots Altitude 4055 ft
07:31 Flaps:1 at 180 Knots
07:33 Gear Down: 157 Knots
07:33 Flaps:2 at 132 Knots
07:38 TouchDown:Rate -125 ft/min Speed: 105 Knots
07:38 Flaps:1 at 94 Knots
07:38 Flaps:0 at 89 Knots
07:38 VATSIM:LEST 130700Z 11003KT 070V160 9000 SCT009 14/12 Q1021 NOSIG
07:38 Land
07:38 Wind:128º@003 Knots
07:38 Heading: 166º
07:38 Flight Duration: 01:57
07:38 Landing Weight: 11148 Lbs
07:38 POS N42º 53´ 44´´ W008º 24´ 53´´
07:40 Parking brakes on
07:40 Block to Block Duration: 02:05
07:40 Final Fuel: 2405 Lbls
07:40 Spent Fuel: 1272 Lbls
07:40 Flight Length: 444 NM
07:40 TOD Land Length: 90 NM

Exportar CSV

Powered by Drupal - Modified by Danger4k